Woodgate — D5BX7 — position and weather

sailwx.info

Track history (hours):
 
Tides and Currents Weather Stations Pressure Air Temp Water Temp Dewpoint Dewpoint Depression Visibility Wind Speed Wind Dir Waves Ship Positions

Woodgate

Last reported at 2018-Apr-19 14:02 UTC. Time now 2018-Apr-22 03:05 UTC.
Position N 37°44' E 024°19'.

Length 169 m; draft 10.2 m.

Type: Cargo ship. MMSI: 636015627.

Date/timePositionNaut miles runAvg speedWind from/ knotsBaromVisibWave heightAir tempDewpointWater temp
2018-Apr-19 14:02N 37°44' E 024°19'112.2
2018-Apr-19 13:56N 37°43' E 024°18'43712.0
2018-Apr-18 01:25N 35°52' E 015°30'914.5
2018-Apr-18 00:50N 35°51' E 015°20'411.4
2018-Apr-18 00:27N 35°51' E 015°14'613.1
2018-Apr-18 00:00N 35°50' E 015°07'713.3
2018-Apr-17 23:30N 35°50' E 014°59'713.0
2018-Apr-17 23:00N 35°49' E 014°51'612.1
2018-Apr-17 22:30N 35°50' E 014°43'510.4
2018-Apr-17 21:59N 35°50' E 014°37'1 1.0
2018-Apr-17 20:37N 35°49' E 014°35'0 0.0
2018-Apr-17 20:19N 35°49' E 014°35'0 0.1
2018-Apr-17 19:43N 35°49' E 014°35'0 0.1
2018-Apr-17 19:13N 35°49' E 014°35'0 0.0
2018-Apr-17 18:55N 35°49' E 014°35'0 0.0
2018-Apr-17 18:28N 35°49' E 014°35'0 0.0
2018-Apr-17 17:34N 35°49' E 014°35'0 0.0
2018-Apr-17 17:25N 35°49' E 014°35'0 0.1
2018-Apr-17 16:40N 35°49' E 014°35'0 0.1
2018-Apr-17 16:22N 35°49' E 014°35'0 0.1
2018-Apr-17 15:43N 35°49' E 014°35'0 0.1
2018-Apr-17 15:29N 35°49' E 014°35'0 0.0
2018-Apr-17 14:52N 35°49' E 014°35'0 0.0
2018-Apr-17 14:28N 35°49' E 014°35'0 0.0
2018-Apr-17 13:58N 35°49' E 014°35'0 0.0
2018-Apr-17 13:28N 35°49' E 014°35'0 0.0
2018-Apr-17 12:58N 35°49' E 014°35'0 0.0
2018-Apr-17 12:25N 35°49' E 014°35'0 0.0
2018-Apr-17 11:55N 35°49' E 014°35'0 0.0
2018-Apr-17 11:28N 35°49' E 014°35'0 0.0
2018-Apr-17 10:55N 35°49' E 014°35'0 0.0
2018-Apr-17 10:28N 35°49' E 014°35'0 0.0
2018-Apr-17 09:58N 35°49' E 014°35'0 0.0
2018-Apr-17 09:28N 35°49' E 014°35'0 0.0
2018-Apr-17 08:52N 35°49' E 014°35'0 0.9
2018-Apr-17 08:23N 35°49' E 014°36'2 4.6
2018-Apr-17 08:00N 35°50' E 014°37'4 7.2
2018-Apr-17 07:30N 35°54' E 014°37'3 5.8
2018-Apr-17 07:00N 35°57' E 014°36'2 4.4
2018-Apr-17 06:30N 35°58' E 014°38'3 6.8
2018-Apr-17 06:00N 36°01' E 014°37'611.9
2018-Apr-17 05:30N 36°05' E 014°31'613.1
2018-Apr-17 05:01N 36°07' E 014°24'713.0
2018-Apr-17 04:30N 36°09' E 014°16'713.5
2018-Apr-17 04:00N 36°12' E 014°08'713.2
2018-Apr-17 03:30N 36°15' E 014°01'613.1
2018-Apr-17 03:00N 36°18' E 013°54'612.6
2018-Apr-17 02:30N 36°21' E 013°47'714.1
2018-Apr-17 02:00N 36°24' E 013°39'612.3
2018-Apr-17 01:30N 36°27' E 013°32'714.2
2018-Apr-17 01:00N 36°30' E 013°24'713.0
2018-Apr-17 00:28N 36°33' E 013°16'1512.9
2018-Apr-16 23:17N 36°39' E 012°59'2813.3
2018-Apr-16 21:11N 36°52' E 012°28'314.5
2018-Apr-16 21:00N 36°53' E 012°25'5213.2
2018-Apr-16 17:04N 37°15' E 011°27'  
2018-Apr-14 05:10N 36°00' W 005°07'513.9
2018-Apr-14 04:46N 35°59' W 005°14'415.4
2018-Apr-14 04:30N 35°59' W 005°19'815.8
2018-Apr-14 04:00N 35°57' W 005°28'  
Track history (hours):
 
Tides and Currents Weather Stations Pressure Air Temp Water Temp Dewpoint Dewpoint Depression Visibility Wind Speed Wind Dir Waves Ship Positions

Woodgate

Last reported at 2018-Apr-19 14:02 UTC. Time now 2018-Apr-22 03:05 UTC.
Position N 37°44' E 024°19'.

Length 169 m; draft 10.2 m.

Type: Cargo ship. MMSI: 636015627.

Date/timePositionNaut miles runAvg speedWind from/ knotsBaromVisibWave heightAir tempDewpointWater temp
2018-Apr-19 14:02N 37°44' E 024°19'112.2
2018-Apr-19 13:56N 37°43' E 024°18'43712.0
2018-Apr-18 01:25N 35°52' E 015°30'914.5
2018-Apr-18 00:50N 35°51' E 015°20'411.4
2018-Apr-18 00:27N 35°51' E 015°14'613.1
2018-Apr-18 00:00N 35°50' E 015°07'713.3
2018-Apr-17 23:30N 35°50' E 014°59'713.0
2018-Apr-17 23:00N 35°49' E 014°51'612.1
2018-Apr-17 22:30N 35°50' E 014°43'510.4
2018-Apr-17 21:59N 35°50' E 014°37'1 1.0
2018-Apr-17 20:37N 35°49' E 014°35'0 0.0
2018-Apr-17 20:19N 35°49' E 014°35'0 0.1
2018-Apr-17 19:43N 35°49' E 014°35'0 0.1
2018-Apr-17 19:13N 35°49' E 014°35'0 0.0
2018-Apr-17 18:55N 35°49' E 014°35'0 0.0
2018-Apr-17 18:28N 35°49' E 014°35'0 0.0
2018-Apr-17 17:34N 35°49' E 014°35'0 0.0
2018-Apr-17 17:25N 35°49' E 014°35'0 0.1
2018-Apr-17 16:40N 35°49' E 014°35'0 0.1
2018-Apr-17 16:22N 35°49' E 014°35'0 0.1
2018-Apr-17 15:43N 35°49' E 014°35'0 0.1
2018-Apr-17 15:29N 35°49' E 014°35'0 0.0
2018-Apr-17 14:52N 35°49' E 014°35'0 0.0
2018-Apr-17 14:28N 35°49' E 014°35'0 0.0
2018-Apr-17 13:58N 35°49' E 014°35'0 0.0
2018-Apr-17 13:28N 35°49' E 014°35'0 0.0
2018-Apr-17 12:58N 35°49' E 014°35'0 0.0
2018-Apr-17 12:25N 35°49' E 014°35'0 0.0
2018-Apr-17 11:55N 35°49' E 014°35'0 0.0
2018-Apr-17 11:28N 35°49' E 014°35'0 0.0
2018-Apr-17 10:55N 35°49' E 014°35'0 0.0
2018-Apr-17 10:28N 35°49' E 014°35'0 0.0
2018-Apr-17 09:58N 35°49' E 014°35'0 0.0
2018-Apr-17 09:28N 35°49' E 014°35'0 0.0
2018-Apr-17 08:52N 35°49' E 014°35'0 0.9
2018-Apr-17 08:23N 35°49' E 014°36'2 4.6
2018-Apr-17 08:00N 35°50' E 014°37'4 7.2
2018-Apr-17 07:30N 35°54' E 014°37'3 5.8
2018-Apr-17 07:00N 35°57' E 014°36'2 4.4
2018-Apr-17 06:30N 35°58' E 014°38'3 6.8
2018-Apr-17 06:00N 36°01' E 014°37'611.9
2018-Apr-17 05:30N 36°05' E 014°31'613.1
2018-Apr-17 05:01N 36°07' E 014°24'713.0
2018-Apr-17 04:30N 36°09' E 014°16'713.5
2018-Apr-17 04:00N 36°12' E 014°08'713.2
2018-Apr-17 03:30N 36°15' E 014°01'613.1
2018-Apr-17 03:00N 36°18' E 013°54'612.6
2018-Apr-17 02:30N 36°21' E 013°47'714.1
2018-Apr-17 02:00N 36°24' E 013°39'612.3
2018-Apr-17 01:30N 36°27' E 013°32'714.2
2018-Apr-17 01:00N 36°30' E 013°24'713.0
2018-Apr-17 00:28N 36°33' E 013°16'1512.9
2018-Apr-16 23:17N 36°39' E 012°59'2813.3
2018-Apr-16 21:11N 36°52' E 012°28'314.5
2018-Apr-16 21:00N 36°53' E 012°25'5213.2
2018-Apr-16 17:04N 37°15' E 011°27'  
2018-Apr-14 05:10N 36°00' W 005°07'513.9
2018-Apr-14 04:46N 35°59' W 005°14'415.4
2018-Apr-14 04:30N 35°59' W 005°19'815.8
2018-Apr-14 04:00N 35°57' W 005°28'  

Dump ship's entire track history